sensor_id;sensor_type;location;lat;lon;timestamp;pressure;altitude;pressure_sealevel;temperature;humidity
32761;BME280;19126;47.472;7.850;2023-07-08T00:00:43;96646.56;;;18.34;100.00
32761;BME280;19126;47.472;7.850;2023-07-08T00:03:12;96640.66;;;18.32;100.00
32761;BME280;19126;47.472;7.850;2023-07-08T00:05:40;96660.91;;;18.33;100.00
32761;BME280;19126;47.472;7.850;2023-07-08T00:08:09;96694.88;;;18.31;100.00
32761;BME280;19126;47.472;7.850;2023-07-08T00:10:39;96714.91;;;18.34;100.00
32761;BME280;19126;47.472;7.850;2023-07-08T00:13:08;96716.75;;;18.33;100.00
32761;BME280;19126;47.472;7.850;2023-07-08T00:15:36;96717.50;;;18.40;100.00
32761;BME280;19126;47.472;7.850;2023-07-08T00:18:13;96697.47;;;18.38;100.00
32761;BME280;19126;47.472;7.850;2023-07-08T00:20:44;96665.63;;;18.31;100.00
32761;BME280;19126;47.472;7.850;2023-07-08T00:23:12;96679.44;;;18.40;100.00
32761;BME280;19126;47.472;7.850;2023-07-08T00:25:39;96687.78;;;18.43;100.00
32761;BME280;19126;47.472;7.850;2023-07-08T00:28:09;96677.31;;;18.49;100.00
32761;BME280;19126;47.472;7.850;2023-07-08T00:30:37;96672.91;;;18.54;100.00
32761;BME280;19126;47.472;7.850;2023-07-08T00:33:06;96672.78;;;18.68;100.00
32761;BME280;19126;47.472;7.850;2023-07-08T00:35:37;96654.03;;;18.74;100.00
32761;BME280;19126;47.472;7.850;2023-07-08T00:38:13;96638.22;;;18.80;100.00
32761;BME280;19126;47.472;7.850;2023-07-08T00:40:51;96617.16;;;18.78;100.00
32761;BME280;19126;47.472;7.850;2023-07-08T00:43:36;96612.19;;;18.82;100.00
32761;BME280;19126;47.472;7.850;2023-07-08T00:46:18;96600.28;;;18.84;100.00
32761;BME280;19126;47.472;7.850;2023-07-08T00:48:48;96633.53;;;18.94;100.00
32761;BME280;19126;47.472;7.850;2023-07-08T00:51:17;96649.19;;;19.02;100.00
32761;BME280;19126;47.472;7.850;2023-07-08T00:53:46;96674.78;;;19.03;100.00
32761;BME280;19126;47.472;7.850;2023-07-08T00:56:19;96684.88;;;19.13;100.00
32761;BME280;19126;47.472;7.850;2023-07-08T00:58:51;96656.41;;;19.13;100.00
32761;BME280;19126;47.472;7.850;2023-07-08T01:01:20;96692.28;;;19.11;100.00
32761;BME280;19126;47.472;7.850;2023-07-08T01:03:54;96684.53;;;19.09;100.00
32761;BME280;19126;47.472;7.850;2023-07-08T01:06:25;96673.16;;;19.02;100.00
32761;BME280;19126;47.472;7.850;2023-07-08T01:08:58;96684.31;;;18.92;100.00
32761;BME280;19126;47.472;7.850;2023-07-08T01:11:32;96702.53;;;18.77;98.50
32761;BME280;19126;47.472;7.850;2023-07-08T01:14:01;96720.81;;;18.73;93.47
32761;BME280;19126;47.472;7.850;2023-07-08T01:16:30;96736.84;;;18.66;88.95
32761;BME280;19126;47.472;7.850;2023-07-08T01:19:00;96757.78;;;18.63;85.09
32761;BME280;19126;47.472;7.850;2023-07-08T01:21:33;96735.31;;;18.58;81.51
32761;BME280;19126;47.472;7.850;2023-07-08T01:24:05;96733.31;;;18.54;81.45
32761;BME280;19126;47.472;7.850;2023-07-08T01:26:39;96738.09;;;18.45;85.09
32761;BME280;19126;47.472;7.850;2023-07-08T01:29:07;96738.97;;;18.39;86.44
32761;BME280;19126;47.472;7.850;2023-07-08T01:31:35;96732.28;;;18.36;85.48
32761;BME280;19126;47.472;7.850;2023-07-08T01:34:02;96771.03;;;18.44;85.26
32761;BME280;19126;47.472;7.850;2023-07-08T01:36:37;96764.53;;;18.21;75.39
32761;BME280;19126;47.472;7.850;2023-07-08T01:39:11;96759.28;;;18.14;70.91
32761;BME280;19126;47.472;7.850;2023-07-08T01:41:39;96748.41;;;18.16;69.01
32761;BME280;19126;47.472;7.850;2023-07-08T01:44:21;96750.28;;;18.15;65.65
32761;BME280;19126;47.472;7.850;2023-07-08T01:46:49;96766.88;;;18.11;64.88
32761;BME280;19126;47.472;7.850;2023-07-08T01:49:19;96756.47;;;18.09;63.60
32761;BME280;19126;47.472;7.850;2023-07-08T01:51:48;96764.06;;;18.06;63.62
32761;BME280;19126;47.472;7.850;2023-07-08T01:54:17;96769.38;;;18.06;62.77
32761;BME280;19126;47.472;7.850;2023-07-08T01:56:44;96771.66;;;18.02;60.88
32761;BME280;19126;47.472;7.850;2023-07-08T01:59:12;96787.38;;;18.04;60.35
32761;BME280;19126;47.472;7.850;2023-07-08T02:01:39;96783.66;;;18.11;57.87
32761;BME280;19126;47.472;7.850;2023-07-08T02:04:07;96770.94;;;18.13;56.79
32761;BME280;19126;47.472;7.850;2023-07-08T02:06:34;96773.66;;;18.07;55.63
32761;BME280;19126;47.472;7.850;2023-07-08T02:09:01;96771.44;;;18.04;53.41
32761;BME280;19126;47.472;7.850;2023-07-08T02:11:30;96771.66;;;18.02;51.82
32761;BME280;19126;47.472;7.850;2023-07-08T02:13:57;96799.44;;;18.06;49.54
32761;BME280;19126;47.472;7.850;2023-07-08T02:16:26;96795.00;;;18.00;49.38
32761;BME280;19126;47.472;7.850;2023-07-08T02:18:54;96793.13;;;18.00;49.86
32761;BME280;19126;47.472;7.850;2023-07-08T02:21:21;96795.78;;;18.00;49.67
32761;BME280;19126;47.472;7.850;2023-07-08T02:23:50;96804.09;;;18.11;49.59
32761;BME280;19126;47.472;7.850;2023-07-08T02:26:18;96808.88;;;18.02;49.16
32761;BME280;19126;47.472;7.850;2023-07-08T02:28:47;96813.59;;;17.93;48.34
32761;BME280;19126;47.472;7.850;2023-07-08T02:31:16;96836.72;;;17.93;46.00
32761;BME280;19126;47.472;7.850;2023-07-08T02:33:43;96851.03;;;17.92;43.48
32761;BME280;19126;47.472;7.850;2023-07-08T02:36:11;96857.38;;;17.91;41.62
32761;BME280;19126;47.472;7.850;2023-07-08T02:38:38;96857.16;;;17.92;39.90
32761;BME280;19126;47.472;7.850;2023-07-08T02:41:05;96845.94;;;17.90;38.62
32761;BME280;19126;47.472;7.850;2023-07-08T02:43:33;96853.31;;;17.88;37.30
32761;BME280;19126;47.472;7.850;2023-07-08T02:46:01;96877.88;;;17.83;36.96
32761;BME280;19126;47.472;7.850;2023-07-08T02:48:29;96894.63;;;17.84;37.18
32761;BME280;19126;47.472;7.850;2023-07-08T02:50:59;96909.78;;;17.83;37.92
32761;BME280;19126;47.472;7.850;2023-07-08T02:53:27;96929.00;;;17.79;38.25
32761;BME280;19126;47.472;7.850;2023-07-08T02:55:54;96943.72;;;17.75;38.17
32761;BME280;19126;47.472;7.850;2023-07-08T02:58:22;96956.00;;;17.76;38.38
32761;BME280;19126;47.472;7.850;2023-07-08T03:00:52;96965.81;;;17.75;37.52
32761;BME280;19126;47.472;7.850;2023-07-08T03:03:21;96979.09;;;17.75;36.34
32761;BME280;19126;47.472;7.850;2023-07-08T03:05:55;96989.72;;;17.75;35.15
32761;BME280;19126;47.472;7.850;2023-07-08T03:08:23;96984.00;;;17.71;34.09
32761;BME280;19126;47.472;7.850;2023-07-08T03:10:57;96982.56;;;17.76;33.20
32761;BME280;19126;47.472;7.850;2023-07-08T03:13:26;96967.44;;;17.76;32.22
32761;BME280;19126;47.472;7.850;2023-07-08T03:15:53;96949.88;;;17.75;31.67
32761;BME280;19126;47.472;7.850;2023-07-08T03:18:23;96956.41;;;17.72;31.17
32761;BME280;19126;47.472;7.850;2023-07-08T03:20:52;96958.88;;;17.67;30.65
32761;BME280;19126;47.472;7.850;2023-07-08T03:23:21;96955.63;;;17.65;30.02
32761;BME280;19126;47.472;7.850;2023-07-08T03:25:49;96955.03;;;17.63;29.17
32761;BME280;19126;47.472;7.850;2023-07-08T03:28:17;96966.25;;;17.65;28.51
32761;BME280;19126;47.472;7.850;2023-07-08T03:30:45;96961.16;;;17.64;28.05
32761;BME280;19126;47.472;7.850;2023-07-08T03:33:12;96955.66;;;17.58;28.74
32761;BME280;19126;47.472;7.850;2023-07-08T03:35:41;96953.81;;;17.59;28.50
32761;BME280;19126;47.472;7.850;2023-07-08T03:38:08;96959.53;;;17.56;28.79
32761;BME280;19126;47.472;7.850;2023-07-08T03:40:36;96975.47;;;17.56;28.70
32761;BME280;19126;47.472;7.850;2023-07-08T03:43:03;96984.88;;;17.58;29.01
32761;BME280;19126;47.472;7.850;2023-07-08T03:45:30;96974.22;;;17.65;29.27
32761;BME280;19126;47.472;7.850;2023-07-08T03:47:58;96971.78;;;17.64;29.60
32761;BME280;19126;47.472;7.850;2023-07-08T03:50:26;96978.13;;;17.63;29.71
32761;BME280;19126;47.472;7.850;2023-07-08T03:52:56;96968.31;;;17.63;29.44
32761;BME280;19126;47.472;7.850;2023-07-08T03:55:24;96960.75;;;17.60;29.08
32761;BME280;19126;47.472;7.850;2023-07-08T03:57:51;96956.28;;;17.61;28.06
32761;BME280;19126;47.472;7.850;2023-07-08T04:00:18;96954.41;;;17.68;28.90
32761;BME280;19126;47.472;7.850;2023-07-08T04:02:46;96954.41;;;17.61;30.17
32761;BME280;19126;47.472;7.850;2023-07-08T04:05:15;96977.53;;;17.54;30.44
32761;BME280;19126;47.472;7.850;2023-07-08T04:07:43;97012.47;;;17.51;29.40
32761;BME280;19126;47.472;7.850;2023-07-08T04:10:13;97039.44;;;17.61;29.13
32761;BME280;19126;47.472;7.850;2023-07-08T04:12:40;97048.22;;;17.55;28.38
32761;BME280;19126;47.472;7.850;2023-07-08T04:15:10;97063.97;;;17.50;28.47
32761;BME280;19126;47.472;7.850;2023-07-08T04:17:42;97062.34;;;17.49;27.83
32761;BME280;19126;47.472;7.850;2023-07-08T04:20:13;97055.81;;;17.45;28.50
32761;BME280;19126;47.472;7.850;2023-07-08T04:22:41;97072.78;;;17.43;29.86
32761;BME280;19126;47.472;7.850;2023-07-08T04:25:08;97080.53;;;17.45;32.18
32761;BME280;19126;47.472;7.850;2023-07-08T04:27:38;97083.41;;;17.43;34.29
32761;BME280;19126;47.472;7.850;2023-07-08T04:30:09;97083.19;;;17.38;34.28
32761;BME280;19126;47.472;7.850;2023-07-08T04:32:41;97085.25;;;17.36;33.72
32761;BME280;19126;47.472;7.850;2023-07-08T04:35:09;97098.31;;;17.31;34.71
32761;BME280;19126;47.472;7.850;2023-07-08T04:37:36;97107.13;;;17.32;34.08
32761;BME280;19126;47.472;7.850;2023-07-08T04:40:07;97106.28;;;17.31;34.27
32761;BME280;19126;47.472;7.850;2023-07-08T04:42:39;97112.44;;;17.32;33.19
32761;BME280;19126;47.472;7.850;2023-07-08T04:45:08;97097.09;;;17.34;32.63
32761;BME280;19126;47.472;7.850;2023-07-08T04:47:36;97092.41;;;17.36;31.49
32761;BME280;19126;47.472;7.850;2023-07-08T04:50:04;97082.38;;;17.31;30.11
32761;BME280;19126;47.472;7.850;2023-07-08T04:52:31;97074.22;;;17.26;29.33
32761;BME280;19126;47.472;7.850;2023-07-08T04:54:59;97077.91;;;17.25;28.67
32761;BME280;19126;47.472;7.850;2023-07-08T04:57:26;97081.56;;;17.24;28.05
32761;BME280;19126;47.472;7.850;2023-07-08T04:59:55;97084.22;;;17.24;27.12
32761;BME280;19126;47.472;7.850;2023-07-08T05:02:22;97087.91;;;17.30;27.68
32761;BME280;19126;47.472;7.850;2023-07-08T05:04:50;97077.06;;;17.31;27.92
32761;BME280;19126;47.472;7.850;2023-07-08T05:07:17;97071.16;;;17.22;28.35
32761;BME280;19126;47.472;7.850;2023-07-08T05:09:44;97051.56;;;17.23;27.26
32761;BME280;19126;47.472;7.850;2023-07-08T05:12:12;97036.63;;;17.29;27.56
32761;BME280;19126;47.472;7.850;2023-07-08T05:14:39;97041.34;;;17.20;27.64
32761;BME280;19126;47.472;7.850;2023-07-08T05:17:08;97036.44;;;17.24;27.16
32761;BME280;19126;47.472;7.850;2023-07-08T05:19:35;97048.28;;;17.21;26.86
32761;BME280;19126;47.472;7.850;2023-07-08T05:22:03;97068.69;;;17.14;27.29
32761;BME280;19126;47.472;7.850;2023-07-08T05:24:31;97085.44;;;17.21;26.57
32761;BME280;19126;47.472;7.850;2023-07-08T05:26:58;97089.34;;;17.25;26.30
32761;BME280;19126;47.472;7.850;2023-07-08T05:29:26;97094.06;;;17.23;25.46
32761;BME280;19126;47.472;7.850;2023-07-08T05:31:53;97075.44;;;17.30;23.99
32761;BME280;19126;47.472;7.850;2023-07-08T05:34:22;97061.34;;;17.23;23.65
32761;BME280;19126;47.472;7.850;2023-07-08T05:36:49;97075.66;;;17.28;22.67
32761;BME280;19126;47.472;7.850;2023-07-08T05:39:17;97074.00;;;17.34;21.76
32761;BME280;19126;47.472;7.850;2023-07-08T05:41:44;97083.84;;;17.34;21.38
32761;BME280;19126;47.472;7.850;2023-07-08T05:44:11;97079.72;;;17.31;20.92
32761;BME280;19126;47.472;7.850;2023-07-08T05:46:39;97090.97;;;17.33;20.75
32761;BME280;19126;47.472;7.850;2023-07-08T05:49:06;97089.56;;;17.31;20.76
32761;BME280;19126;47.472;7.850;2023-07-08T05:51:37;97083.41;;;17.30;20.01
32761;BME280;19126;47.472;7.850;2023-07-08T05:54:04;97076.06;;;17.32;19.62
32761;BME280;19126;47.472;7.850;2023-07-08T05:56:32;97088.09;;;17.28;20.09
32761;BME280;19126;47.472;7.850;2023-07-08T05:59:00;97107.53;;;17.28;20.29
32761;BME280;19126;47.472;7.850;2023-07-08T06:01:27;97105.28;;;17.25;21.02
32761;BME280;19126;47.472;7.850;2023-07-08T06:03:55;97102.81;;;17.31;20.61
32761;BME280;19126;47.472;7.850;2023-07-08T06:06:24;97100.78;;;17.33;20.82
32761;BME280;19126;47.472;7.850;2023-07-08T06:08:53;97103.84;;;17.36;20.68
32761;BME280;19126;47.472;7.850;2023-07-08T06:11:21;97100.78;;;17.33;21.44
32761;BME280;19126;47.472;7.850;2023-07-08T06:13:49;97096.66;;;17.43;22.17
32761;BME280;19126;47.472;7.850;2023-07-08T06:16:16;97100.97;;;17.38;23.23
32761;BME280;19126;47.472;7.850;2023-07-08T06:18:45;97108.34;;;17.36;24.08
32761;BME280;19126;47.472;7.850;2023-07-08T06:21:12;97104.03;;;17.41;23.95
32761;BME280;19126;47.472;7.850;2023-07-08T06:23:45;97086.03;;;17.43;23.79
32761;BME280;19126;47.472;7.850;2023-07-08T06:26:14;97090.53;;;17.50;23.57
32761;BME280;19126;47.472;7.850;2023-07-08T06:28:42;97091.97;;;17.46;23.90
32761;BME280;19126;47.472;7.850;2023-07-08T06:31:09;97084.41;;;17.42;23.42
32761;BME280;19126;47.472;7.850;2023-07-08T06:33:36;97086.25;;;17.49;22.64
32761;BME280;19126;47.472;7.850;2023-07-08T06:36:04;97080.31;;;17.53;22.03
32761;BME280;19126;47.472;7.850;2023-07-08T06:38:32;97077.66;;;17.53;21.11
32761;BME280;19126;47.472;7.850;2023-07-08T06:41:00;97073.38;;;17.52;21.39
32761;BME280;19126;47.472;7.850;2023-07-08T06:43:29;97066.81;;;17.55;21.02
32761;BME280;19126;47.472;7.850;2023-07-08T06:45:56;97059.88;;;17.54;21.25
32761;BME280;19126;47.472;7.850;2023-07-08T06:48:23;97051.91;;;17.54;22.26
32761;BME280;19126;47.472;7.850;2023-07-08T06:50:51;97059.50;;;17.50;23.96
32761;BME280;19126;47.472;7.850;2023-07-08T06:53:19;97042.91;;;17.55;27.14
32761;BME280;19126;47.472;7.850;2023-07-08T06:55:46;97036.38;;;17.51;30.71
32761;BME280;19126;47.472;7.850;2023-07-08T06:58:14;97044.34;;;17.51;38.45
32761;BME280;19126;47.472;7.850;2023-07-08T07:00:44;97036.00;;;17.47;45.44
32761;BME280;19126;47.472;7.850;2023-07-08T07:03:12;97033.13;;;17.49;55.94
32761;BME280;19126;47.472;7.850;2023-07-08T07:05:40;97024.16;;;17.43;61.12
32761;BME280;19126;47.472;7.850;2023-07-08T07:08:09;97022.13;;;17.38;62.04
32761;BME280;19126;47.472;7.850;2023-07-08T07:10:36;97020.28;;;17.39;61.34
32761;BME280;19126;47.472;7.850;2023-07-08T07:13:04;97025.38;;;17.40;60.00
32761;BME280;19126;47.472;7.850;2023-07-08T07:15:31;97026.81;;;17.43;58.35
32761;BME280;19126;47.472;7.850;2023-07-08T07:18:01;97024.56;;;17.47;57.12
32761;BME280;19126;47.472;7.850;2023-07-08T07:20:28;97014.94;;;17.46;54.47
32761;BME280;19126;47.472;7.850;2023-07-08T07:22:57;97017.38;;;17.54;52.74
32761;BME280;19126;47.472;7.850;2023-07-08T07:25:24;97021.88;;;17.53;51.95
32761;BME280;19126;47.472;7.850;2023-07-08T07:27:52;97020.41;;;17.64;51.21
32761;BME280;19126;47.472;7.850;2023-07-08T07:30:19;97001.22;;;17.62;51.47
32761;BME280;19126;47.472;7.850;2023-07-08T07:32:47;97007.72;;;17.66;50.64
32761;BME280;19126;47.472;7.850;2023-07-08T07:35:16;97015.03;;;17.84;49.67
32761;BME280;19126;47.472;7.850;2023-07-08T07:37:43;97005.25;;;17.78;53.75
32761;BME280;19126;47.472;7.850;2023-07-08T07:40:13;97010.53;;;17.85;53.88
32761;BME280;19126;47.472;7.850;2023-07-08T07:42:43;96997.63;;;17.89;53.64
32761;BME280;19126;47.472;7.850;2023-07-08T07:45:11;96994.34;;;17.93;51.98
32761;BME280;19126;47.472;7.850;2023-07-08T07:47:39;96987.38;;;17.99;50.75
32761;BME280;19126;47.472;7.850;2023-07-08T07:50:09;96987.16;;;18.07;49.20
32761;BME280;19126;47.472;7.850;2023-07-08T07:52:38;96995.72;;;18.09;49.69
32761;BME280;19126;47.472;7.850;2023-07-08T07:55:06;96982.38;;;18.16;49.51
32761;BME280;19126;47.472;7.850;2023-07-08T07:57:34;96976.03;;;18.17;56.72
32761;BME280;19126;47.472;7.850;2023-07-08T08:00:01;96984.00;;;18.17;59.83
32761;BME280;19126;47.472;7.850;2023-07-08T08:02:29;96973.78;;;18.21;58.87
32761;BME280;19126;47.472;7.850;2023-07-08T08:04:56;96965.16;;;18.25;58.05
32761;BME280;19126;47.472;7.850;2023-07-08T08:07:24;96966.34;;;18.29;60.94
32761;BME280;19126;47.472;7.850;2023-07-08T08:09:53;96966.94;;;18.31;66.21
32761;BME280;19126;47.472;7.850;2023-07-08T08:12:21;96963.41;;;18.38;65.57
32761;BME280;19126;47.472;7.850;2023-07-08T08:14:50;96957.84;;;18.46;63.14
32761;BME280;19126;47.472;7.850;2023-07-08T08:17:17;96954.09;;;18.54;59.98
32761;BME280;19126;47.472;7.850;2023-07-08T08:19:45;96955.69;;;18.62;57.07
32761;BME280;19126;47.472;7.850;2023-07-08T08:22:12;96957.50;;;18.68;56.71
32761;BME280;19126;47.472;7.850;2023-07-08T08:24:41;96955.34;;;18.77;57.80
32761;BME280;19126;47.472;7.850;2023-07-08T08:27:10;96957.25;;;18.95;62.05
32761;BME280;19126;47.472;7.850;2023-07-08T08:29:37;96951.28;;;18.99;70.03
32761;BME280;19126;47.472;7.850;2023-07-08T08:32:05;96950.63;;;19.04;76.23
32761;BME280;19126;47.472;7.850;2023-07-08T08:34:32;96954.91;;;19.05;85.07
32761;BME280;19126;47.472;7.850;2023-07-08T08:36:59;96951.16;;;19.13;87.43
32761;BME280;19126;47.472;7.850;2023-07-08T08:39:27;96951.44;;;19.23;81.58
32761;BME280;19126;47.472;7.850;2023-07-08T08:41:56;96953.00;;;19.31;78.73
32761;BME280;19126;47.472;7.850;2023-07-08T08:44:31;96949.00;;;19.40;77.19
32761;BME280;19126;47.472;7.850;2023-07-08T08:47:08;96948.63;;;19.55;76.19
32761;BME280;19126;47.472;7.850;2023-07-08T08:49:47;96946.81;;;19.68;76.16
32761;BME280;19126;47.472;7.850;2023-07-08T08:52:17;96950.34;;;19.80;75.70
32761;BME280;19126;47.472;7.850;2023-07-08T08:54:45;96949.09;;;19.83;80.11
32761;BME280;19126;47.472;7.850;2023-07-08T08:57:24;96953.41;;;19.84;83.56
32761;BME280;19126;47.472;7.850;2023-07-08T08:59:57;96957.25;;;19.88;82.28
32761;BME280;19126;47.472;7.850;2023-07-08T09:02:33;96956.41;;;19.87;79.80
32761;BME280;19126;47.472;7.850;2023-07-08T09:05:05;96960.94;;;19.87;82.37
32761;BME280;19126;47.472;7.850;2023-07-08T09:07:41;96955.63;;;19.87;85.57
32761;BME280;19126;47.472;7.850;2023-07-08T09:10:21;96953.34;;;19.90;88.20
32761;BME280;19126;47.472;7.850;2023-07-08T09:12:57;96954.53;;;19.95;89.07
32761;BME280;19126;47.472;7.850;2023-07-08T09:15:31;96964.28;;;20.01;88.89
32761;BME280;19126;47.472;7.850;2023-07-08T09:18:13;96966.06;;;20.07;86.73
32761;BME280;19126;47.472;7.850;2023-07-08T09:20:42;96958.06;;;20.19;84.81
32761;BME280;19126;47.472;7.850;2023-07-08T09:23:17;96965.44;;;20.35;82.19
32761;BME280;19126;47.472;7.850;2023-07-08T09:25:54;96971.50;;;20.55;90.58
32761;BME280;19126;47.472;7.850;2023-07-08T09:28:36;96959.91;;;20.73;100.00
32761;BME280;19126;47.472;7.850;2023-07-08T09:31:08;96960.19;;;20.83;100.00
32761;BME280;19126;47.472;7.850;2023-07-08T09:33:38;96953.66;;;21.03;100.00
32761;BME280;19126;47.472;7.850;2023-07-08T09:36:17;96947.28;;;21.16;100.00
32761;BME280;19126;47.472;7.850;2023-07-08T09:38:50;96949.59;;;21.36;100.00
32761;BME280;19126;47.472;7.850;2023-07-08T09:41:31;96941.53;;;21.48;100.00
32761;BME280;19126;47.472;7.850;2023-07-08T09:44:16;96943.50;;;21.64;100.00
32761;BME280;19126;47.472;7.850;2023-07-08T09:46:45;96941.28;;;21.73;100.00
32761;BME280;19126;47.472;7.850;2023-07-08T09:49:26;96940.53;;;21.78;100.00
32761;BME280;19126;47.472;7.850;2023-07-08T09:51:54;96935.63;;;21.87;100.00
32761;BME280;19126;47.472;7.850;2023-07-08T09:54:24;96936.78;;;21.91;100.00
32761;BME280;19126;47.472;7.850;2023-07-08T09:56:59;96926.59;;;22.05;100.00
32761;BME280;19126;47.472;7.850;2023-07-08T09:59:32;96924.75;;;22.22;100.00
32761;BME280;19126;47.472;7.850;2023-07-08T10:02:28;96919.41;;;22.39;100.00
32761;BME280;19126;47.472;7.850;2023-07-08T10:04:59;96913.78;;;22.53;100.00
32761;BME280;19126;47.472;7.850;2023-07-08T10:07:30;96925.19;;;22.65;100.00
32761;BME280;19126;47.472;7.850;2023-07-08T10:10:02;96916.34;;;22.82;100.00
32761;BME280;19126;47.472;7.850;2023-07-08T10:12:31;96926.78;;;23.01;100.00
32761;BME280;19126;47.472;7.850;2023-07-08T10:15:06;96925.91;;;23.17;100.00
32761;BME280;19126;47.472;7.850;2023-07-08T10:17:41;96926.97;;;23.33;100.00
32761;BME280;19126;47.472;7.850;2023-07-08T10:20:12;96925.22;;;23.44;100.00
32761;BME280;19126;47.472;7.850;2023-07-08T10:22:52;96923.19;;;23.79;100.00
32761;BME280;19126;47.472;7.850;2023-07-08T10:25:31;96920.88;;;24.42;97.76
32761;BME280;19126;47.472;7.850;2023-07-08T10:28:16;96917.13;;;24.81;91.26
32761;BME280;19126;47.472;7.850;2023-07-08T10:30:58;96925.34;;;25.07;79.98
32761;BME280;19126;47.472;7.850;2023-07-08T10:33:58;96922.00;;;25.33;86.39
32761;BME280;19126;47.472;7.850;2023-07-08T10:36:43;96928.22;;;25.43;81.55
32761;BME280;19126;47.472;7.850;2023-07-08T10:39:42;96933.03;;;25.31;73.76
32761;BME280;19126;47.472;7.850;2023-07-08T10:42:26;96942.31;;;25.13;71.71
32761;BME280;19126;47.472;7.850;2023-07-08T10:45:03;96937.44;;;25.05;76.57
32761;BME280;19126;47.472;7.850;2023-07-08T10:47:48;96933.06;;;24.93;73.10
32761;BME280;19126;47.472;7.850;2023-07-08T10:50:43;96933.66;;;25.00;75.09
32761;BME280;19126;47.472;7.850;2023-07-08T10:53:37;96939.34;;;25.09;82.39
32761;BME280;19126;47.472;7.850;2023-07-08T10:56:16;96939.69;;;25.23;79.61
32761;BME280;19126;47.472;7.850;2023-07-08T10:59:00;96937.56;;;25.30;77.75
32761;BME280;19126;47.472;7.850;2023-07-08T11:01:43;96936.81;;;25.40;74.39
32761;BME280;19126;47.472;7.850;2023-07-08T11:04:32;96937.88;;;25.34;73.09
32761;BME280;19126;47.472;7.850;2023-07-08T11:07:10;96937.09;;;25.44;76.94
32761;BME280;19126;47.472;7.850;2023-07-08T11:09:44;96935.47;;;25.43;73.15
32761;BME280;19126;47.472;7.850;2023-07-08T11:12:26;96934.41;;;25.44;77.52
32761;BME280;19126;47.472;7.850;2023-07-08T11:15:04;96938.66;;;25.35;79.12
32761;BME280;19126;47.472;7.850;2023-07-08T11:17:39;96935.34;;;25.17;76.46
32761;BME280;19126;47.472;7.850;2023-07-08T11:20:18;96939.31;;;25.04;78.93
32761;BME280;19126;47.472;7.850;2023-07-08T11:22:54;96935.94;;;24.81;79.28
32761;BME280;19126;47.472;7.850;2023-07-08T11:25:26;96943.63;;;24.67;76.25
32761;BME280;19126;47.472;7.850;2023-07-08T11:27:57;96937.88;;;24.53;77.90
32761;BME280;19126;47.472;7.850;2023-07-08T11:30:30;96942.94;;;24.50;83.15
32761;BME280;19126;47.472;7.850;2023-07-08T11:33:02;96937.69;;;24.33;84.67
32761;BME280;19126;47.472;7.850;2023-07-08T11:35:38;96946.78;;;24.26;83.30
32761;BME280;19126;47.472;7.850;2023-07-08T11:38:13;96944.59;;;24.23;90.14
32761;BME280;19126;47.472;7.850;2023-07-08T11:40:54;96941.72;;;24.03;88.07
32761;BME280;19126;47.472;7.850;2023-07-08T11:43:25;96933.47;;;24.09;89.47
32761;BME280;19126;47.472;7.850;2023-07-08T11:45:56;96936.75;;;24.17;88.87
32761;BME280;19126;47.472;7.850;2023-07-08T11:48:28;96937.81;;;24.16;89.01
32761;BME280;19126;47.472;7.850;2023-07-08T11:50:58;96941.66;;;24.25;91.80
32761;BME280;19126;47.472;7.850;2023-07-08T11:53:36;96942.00;;;24.34;91.90
32761;BME280;19126;47.472;7.850;2023-07-08T11:56:19;96938.66;;;24.21;92.41
32761;BME280;19126;47.472;7.850;2023-07-08T11:58:59;96935.84;;;24.33;92.93
32761;BME280;19126;47.472;7.850;2023-07-08T12:01:39;96931.84;;;24.41;92.73
32761;BME280;19126;47.472;7.850;2023-07-08T12:04:26;96940.34;;;24.60;93.72
32761;BME280;19126;47.472;7.850;2023-07-08T12:07:14;96941.72;;;25.00;92.92
32761;BME280;19126;47.472;7.850;2023-07-08T12:09:49;96932.09;;;25.58;89.13
32761;BME280;19126;47.472;7.850;2023-07-08T12:12:25;96922.19;;;25.79;86.11
32761;BME280;19126;47.472;7.850;2023-07-08T12:15:04;96929.28;;;26.16;84.19
32761;BME280;19126;47.472;7.850;2023-07-08T12:17:33;96923.38;;;26.51;86.45
32761;BME280;19126;47.472;7.850;2023-07-08T12:20:02;96923.63;;;26.90;81.47
32761;BME280;19126;47.472;7.850;2023-07-08T12:22:34;96926.97;;;27.43;80.71
32761;BME280;19126;47.472;7.850;2023-07-08T12:25:07;96924.69;;;27.76;76.02
32761;BME280;19126;47.472;7.850;2023-07-08T12:27:35;96924.34;;;27.93;73.46
32761;BME280;19126;47.472;7.850;2023-07-08T12:30:03;96925.84;;;28.15;74.05
32761;BME280;19126;47.472;7.850;2023-07-08T12:32:31;96924.31;;;28.38;67.90
32761;BME280;19126;47.472;7.850;2023-07-08T12:34:59;96926.22;;;28.67;72.43
32761;BME280;19126;47.472;7.850;2023-07-08T12:37:26;96924.41;;;28.92;69.44
32761;BME280;19126;47.472;7.850;2023-07-08T12:39:55;96917.16;;;29.12;69.32
32761;BME280;19126;47.472;7.850;2023-07-08T12:42:27;96915.44;;;29.45;69.88
32761;BME280;19126;47.472;7.850;2023-07-08T12:44:54;96906.75;;;29.48;65.92
32761;BME280;19126;47.472;7.850;2023-07-08T12:47:22;96911.59;;;29.51;63.10
32761;BME280;19126;47.472;7.850;2023-07-08T12:49:50;96906.97;;;29.28;63.74
32761;BME280;19126;47.472;7.850;2023-07-08T12:52:22;96912.69;;;29.26;63.04
32761;BME280;19126;47.472;7.850;2023-07-08T12:54:50;96906.81;;;29.19;64.65
32761;BME280;19126;47.472;7.850;2023-07-08T12:57:18;96906.13;;;29.08;62.35
32761;BME280;19126;47.472;7.850;2023-07-08T12:59:47;96895.75;;;28.91;65.30
32761;BME280;19126;47.472;7.850;2023-07-08T13:02:17;96898.84;;;29.03;69.05
32761;BME280;19126;47.472;7.850;2023-07-08T13:04:49;96900.13;;;29.11;68.76
32761;BME280;19126;47.472;7.850;2023-07-08T13:07:30;96898.59;;;29.05;67.87
32761;BME280;19126;47.472;7.850;2023-07-08T13:10:00;96902.94;;;29.01;66.72
32761;BME280;19126;47.472;7.850;2023-07-08T13:12:27;96893.56;;;29.17;67.66
32761;BME280;19126;47.472;7.850;2023-07-08T13:14:59;96897.19;;;29.32;64.90
32761;BME280;19126;47.472;7.850;2023-07-08T13:17:27;96887.66;;;29.39;66.71